Terminal Aerodrome Forecast
Issued by NWS

Home | Current Version | Previous Version | Text Only | Print | Product List | Glossary On
Versions: 1 2 3 4 5 6 7 8 9 10 11 12 13 14 15
000
FTUS44 KEWX 041331 AAB
TAFSSF
TAF AMD
KSSF 041331Z 0414/0512 11005KT P6SM BKN008
     FM041430 16010KT P6SM SCT025 SCT250
     FM050800 15010KT P6SM FEW050 SCT250=

USA.gov is the U.S. government's official web portal to all federal, state and local government web resources and services.